Terminal Aerodrome Forecast
Issued by NWS

Home | Current Version | Previous Version | Graphics & Text | Print | Product List | Glossary On
Versions: 1 2 3 4 5 6 7 8 9 10 11 12 13 14 15 16 17 18 19
000
FTUS43 KICT 300952 AAA
TAFCNU
TAF AMD
KCNU 300952Z 3010/3106 23008KT 5SM -DZ BR SCT004 OVC008
     FM301300 25008KT 3SM -DZ BR SCT004 OVC008
      TEMPO 3013/3017 1 1/2SM -RA BR OVC004
     FM301700 30009KT 5SM -SHRA OVC010
     FM310000 31010KT P6SM BKN015
     FM310400 32007KT P6SM BKN035=

USA.gov is the U.S. government's official web portal to all federal, state and local government web resources and services.